Time;durP1;ratioP1;P1;durP2;ratioP2;P2;SDS_P1;SDS_P2;PMS_P1;PMS_P2;Temp;Humidity;BMP_temperature;BMP_pressure;BME280_temperature;BME280_humidity;BME280_pressure;Samples;Min_cycle;Max_cycle;Signal;HPM_P1;HPM_P2
2022/07/27 00:01:56;;;;;;;16.83;11.90;;;24.60;60.10;;;25.21;47.32;94514.09;5049569;28;20501;-58
2022/07/27 00:04:23;;;;;;;12.57;11.30;;;24.60;60.10;;;25.19;46.70;94516.19;5049467;28;20457;-64
2022/07/27 00:06:50;;;;;;;11.90;10.67;;;24.50;59.90;;;25.15;47.38;94517.75;5049194;28;20922;-64
2022/07/27 00:09:19;;;;;;;12.80;10.70;;;24.50;59.70;;;25.10;46.85;94523.00;5049663;28;20892;-64
2022/07/27 00:11:46;;;;;;;11.90;10.70;;;24.50;60.00;;;25.02;47.61;94519.66;5047306;28;20525;-65
2022/07/27 00:14:13;;;;;;;12.20;11.07;;;24.40;60.20;;;25.02;47.80;94532.31;5049152;28;20501;-59
2022/07/27 00:16:40;;;;;;;12.90;10.57;;;24.40;60.60;;;25.00;47.37;94532.53;5048832;28;20920;-62
2022/07/27 00:19:08;;;;;;;12.07;10.90;;;24.40;61.00;;;24.97;47.36;94533.00;5046722;28;20455;-59
2022/07/27 00:21:35;;;;;;;13.13;10.07;;;24.30;60.90;;;24.94;47.38;94533.50;5049284;28;20471;-59
2022/07/27 00:24:02;;;;;;;11.30;10.20;;;24.30;61.00;;;24.93;47.93;94531.03;5049466;28;20838;-63
2022/07/27 00:26:31;;;;;;;12.10;11.00;;;24.30;61.00;;;24.91;48.37;94536.66;5049764;28;20581;-64
2022/07/27 00:28:58;;;;;;;11.40;10.07;;;24.30;61.10;;;24.86;48.19;94540.06;5048953;28;20956;-64
2022/07/27 00:31:25;;;;;;;12.13;11.03;;;24.30;61.30;;;24.86;48.46;94545.44;5049314;28;20467;-59
2022/07/27 00:33:53;;;;;;;18.70;11.20;;;24.20;61.20;;;24.84;48.28;94544.84;5048782;28;20458;-60
2022/07/27 00:36:20;;;;;;;13.00;10.70;;;24.20;61.20;;;24.83;47.94;94550.47;5047970;28;20471;-59
2022/07/27 00:38:47;;;;;;;14.20;10.40;;;24.20;61.20;;;24.80;47.88;94546.38;5049169;28;20451;-58
2022/07/27 00:41:14;;;;;;;15.80;10.47;;;24.20;61.10;;;24.78;47.72;94543.09;5048849;28;20463;-59
2022/07/27 00:43:53;;;;;;;10.93;9.93;;;24.20;61.40;;;24.75;47.82;94548.94;5048884;28;21041;-63
2022/07/27 00:46:20;;;;;;;23.97;10.57;;;24.10;61.20;;;24.73;48.10;94555.63;5047538;28;20967;-64
2022/07/27 00:48:48;;;;;;;13.50;11.30;;;24.10;61.30;;;24.68;47.82;94559.84;5048785;28;20455;-59
2022/07/27 00:51:15;;;;;;;16.83;11.70;;;24.10;61.50;;;24.65;48.47;94557.63;5049241;28;20700;-59
2022/07/27 00:53:42;;;;;;;14.37;12.20;;;24.00;61.50;;;24.62;48.52;94560.78;5048242;28;20452;-64
2022/07/27 00:56:10;;;;;;;14.43;12.33;;;24.00;61.50;;;24.58;48.26;94553.41;5049130;28;20510;-59
2022/07/27 00:58:37;;;;;;;13.60;12.20;;;24.00;61.30;;;24.53;48.33;94554.09;5048596;28;20497;-59
2022/07/27 01:01:06;;;;;;;16.70;13.10;;;23.90;61.60;;;24.44;48.27;94547.44;5048643;28;20562;-64
2022/07/27 01:03:33;;;;;;;16.57;12.33;;;23.90;62.00;;;24.34;48.50;94556.91;5048015;28;20451;-62
2022/07/27 01:06:00;;;;;;;12.83;11.50;;;23.80;62.00;;;24.27;48.62;94547.31;5047957;28;20486;-65
2022/07/27 01:08:27;;;;;;;13.90;12.07;;;23.70;62.10;;;24.22;49.61;94555.25;5045960;28;20448;-63
2022/07/27 01:10:56;;;;;;;19.07;12.20;;;23.60;62.70;;;24.20;49.72;94552.81;5047982;28;20475;-59
2022/07/27 01:13:23;;;;;;;13.07;11.77;;;23.60;63.60;;;24.16;49.31;94555.13;5048198;28;20451;-64
2022/07/27 01:15:50;;;;;;;14.23;10.80;;;23.60;63.40;;;24.14;48.80;94551.06;5047766;28;21003;-63
2022/07/27 01:18:30;;;;;;;16.80;12.67;;;23.60;62.80;;;24.11;48.98;94554.19;5046150;28;20928;-58
2022/07/27 01:20:57;;;;;;;17.30;11.57;;;23.50;62.70;;;24.10;49.95;94560.63;5045314;28;20474;-64
2022/07/27 01:23:26;;;;;;;16.33;11.90;;;23.50;63.50;;;24.11;50.03;94560.38;5048244;28;20443;-65
2022/07/27 01:25:53;;;;;;;18.93;12.57;;;23.50;63.60;;;24.11;49.43;94562.25;5047622;28;20479;-57
2022/07/27 01:28:20;;;;;;;14.00;11.93;;;23.50;63.60;;;24.13;49.59;94565.53;5047962;28;20497;-60
2022/07/27 01:30:48;;;;;;;23.27;12.53;;;23.50;63.60;;;24.13;49.83;94568.22;5047622;28;20478;-59
2022/07/27 01:33:15;;;;;;;14.47;12.10;;;23.50;63.80;;;24.15;49.83;94563.41;5048601;28;20924;-60
2022/07/27 01:35:42;;;;;;;16.37;13.10;;;23.50;63.80;;;24.16;49.92;94563.19;5047761;28;20529;-59
2022/07/27 01:38:11;;;;;;;13.37;11.60;;;23.50;63.60;;;24.17;49.55;94561.34;5048047;28;20513;-63
2022/07/27 01:40:39;;;;;;;17.50;12.13;;;23.60;63.70;;;24.19;50.11;94574.53;5047579;28;20538;-64
2022/07/27 01:43:07;;;;;;;17.10;12.30;;;23.60;63.70;;;24.17;49.67;94564.84;5047438;28;20475;-59
2022/07/27 01:45:34;;;;;;;21.93;11.17;;;23.50;63.60;;;24.19;49.18;94567.28;5044091;28;20447;-64
2022/07/27 01:48:01;;;;;;;11.40;10.07;;;23.60;63.70;;;24.25;48.56;94565.56;5047732;28;20498;-64
2022/07/27 01:50:29;;;;;;;10.57;9.47;;;23.60;62.20;;;24.31;48.70;94570.00;5047449;28;21645;-58
2022/07/27 01:52:56;;;;;;;9.07;8.10;;;23.60;61.50;;;24.41;47.20;94574.78;5047522;28;20581;-59
2022/07/27 01:55:23;;;;;;;9.13;8.17;;;23.70;60.40;;;24.51;46.62;94575.84;5048429;28;20898;-60
2022/07/27 01:57:52;;;;;;;8.70;7.20;;;23.80;59.70;;;24.61;46.73;94572.59;5047561;28;20451;-60
2022/07/27 02:00:19;;;;;;;9.57;7.53;;;24.00;59.30;;;24.72;46.26;94579.00;5045442;28;20451;-59
2022/07/27 02:02:47;;;;;;;12.50;7.80;;;24.00;58.70;;;24.83;45.25;94580.03;5042045;28;20877;-63
2022/07/27 02:05:14;;;;;;;10.50;7.93;;;24.10;58.10;;;24.91;44.97;94573.47;5045485;28;20532;-63
2022/07/27 02:07:41;;;;;;;10.83;7.10;;;24.20;58.00;;;24.99;44.87;94576.63;5045639;28;20499;-63
2022/07/27 02:10:09;;;;;;;10.53;6.63;;;24.30;57.80;;;25.08;44.45;94578.94;5045576;28;21257;-64
2022/07/27 02:12:35;;;;;;;7.00;6.30;;;24.40;57.70;;;25.14;44.30;94578.81;5044258;28;20537;-58
2022/07/27 02:15:05;;;;;;;12.37;6.30;;;24.50;57.30;;;25.21;44.50;94576.00;5046481;28;20928;-60
2022/07/27 02:17:33;;;;;;;7.30;6.60;;;24.50;57.00;;;25.26;44.04;94570.72;5043924;28;20537;-59
2022/07/27 02:20:00;;;;;;;11.53;6.40;;;24.60;56.80;;;25.30;44.06;94566.53;5047381;28;20458;-59
2022/07/27 02:22:27;;;;;;;7.83;7.13;;;24.70;56.60;;;25.35;43.45;94580.06;5046901;28;20534;-64
2022/07/27 02:24:54;;;;;;;11.67;7.40;;;24.70;56.60;;;25.40;43.72;94576.66;5046507;28;20504;-59
2022/07/27 02:27:22;;;;;;;8.13;7.30;;;24.70;56.10;;;25.45;43.21;94575.94;5046785;28;20494;-64
2022/07/27 02:29:49;;;;;;;15.07;7.20;;;24.80;56.20;;;25.48;43.25;94576.28;5046927;28;20529;-59
2022/07/27 02:32:17;;;;;;;6.87;6.20;;;24.80;56.10;;;25.51;43.11;94577.69;5046667;28;20471;-57
2022/07/27 02:34:45;;;;;;;7.17;6.57;;;24.80;56.00;;;25.51;42.82;94578.50;5046972;28;20451;-59
2022/07/27 02:37:12;;;;;;;7.20;6.60;;;24.80;55.80;;;25.50;43.02;94584.94;5046730;28;21161;-64
2022/07/27 02:39:39;;;;;;;7.93;7.13;;;24.90;55.80;;;25.48;43.53;94584.34;5044938;28;20963;-64
2022/07/27 02:42:06;;;;;;;17.10;7.07;;;24.80;55.70;;;25.45;43.45;94573.25;5046024;28;20560;-64
2022/07/27 02:44:34;;;;;;;10.70;8.10;;;24.80;55.70;;;25.42;43.28;94582.63;5043255;28;20550;-64
2022/07/27 02:47:01;;;;;;;13.13;7.17;;;24.80;55.80;;;25.42;43.11;94590.69;5046520;28;20942;-60
2022/07/27 02:49:30;;;;;;;7.10;6.43;;;24.80;55.80;;;25.40;43.22;94595.50;5046888;28;20448;-58
2022/07/27 02:51:57;;;;;;;8.13;6.67;;;24.70;55.60;;;25.38;43.17;94584.97;5046500;28;20609;-60
2022/07/27 02:54:24;;;;;;;10.67;6.97;;;24.70;55.70;;;25.38;43.50;94594.94;5046572;28;20451;-65
2022/07/27 02:56:52;;;;;;;11.37;7.50;;;24.70;55.90;;;25.40;43.51;94588.25;5046359;28;20533;-64
2022/07/27 02:59:19;;;;;;;15.63;6.90;;;24.70;56.00;;;25.40;43.68;94596.31;5046690;28;20896;-59
2022/07/27 03:01:47;;;;;;;8.43;7.17;;;24.80;56.20;;;25.41;43.15;94597.97;5046276;28;20475;-59
2022/07/27 03:04:14;;;;;;;8.43;6.50;;;24.70;56.20;;;25.44;43.73;94603.91;5049644;28;20454;-63
2022/07/27 03:06:42;;;;;;;11.33;7.53;;;24.80;56.30;;;25.43;43.44;94603.13;5046053;28;20537;-63
2022/07/27 03:09:10;;;;;;;7.17;6.47;;;24.80;56.30;;;25.41;43.60;94600.66;5046622;28;20903;-60
2022/07/27 03:11:37;;;;;;;7.53;6.90;;;24.80;56.30;;;25.40;43.88;94612.47;5045048;28;21080;-64
2022/07/27 03:14:05;;;;;;;7.53;6.73;;;24.80;56.30;;;25.40;43.15;94615.16;5045329;28;20451;-59
2022/07/27 03:16:32;;;;;;;7.33;6.50;;;24.80;56.30;;;25.38;43.99;94609.22;5046876;28;20483;-64
2022/07/27 03:18:59;;;;;;;9.17;6.90;;;24.80;56.50;;;25.39;43.46;94608.16;5044825;28;20521;-63
2022/07/27 03:21:26;;;;;;;11.73;8.13;;;24.70;56.50;;;25.38;43.70;94614.59;5043503;28;20867;-64
2022/07/27 03:23:55;;;;;;;10.30;7.17;;;24.70;56.60;;;25.37;44.23;94607.56;5046220;28;20554;-59
2022/07/27 03:26:22;;;;;;;8.70;7.67;;;24.70;56.60;;;25.37;43.60;94612.16;5045662;28;20467;-60
2022/07/27 03:28:49;;;;;;;11.00;7.40;;;24.70;56.60;;;25.35;43.92;94611.56;5046097;28;20459;-64
2022/07/27 03:31:17;;;;;;;22.80;8.47;;;24.70;56.80;;;25.36;44.50;94615.88;5045994;28;20479;-65
2022/07/27 03:33:44;;;;;;;9.50;7.83;;;24.70;56.90;;;25.33;44.27;94608.28;5041992;28;20451;-60
2022/07/27 03:36:11;;;;;;;13.30;7.20;;;24.70;56.90;;;25.34;44.38;94616.13;5046408;28;20471;-58
2022/07/27 03:38:38;;;;;;;16.70;7.93;;;24.70;56.90;;;25.35;44.40;94617.78;5045704;28;20574;-65
2022/07/27 03:41:07;;;;;;;10.93;6.80;;;24.70;56.90;;;25.35;44.00;94612.38;5045400;28;20919;-59
2022/07/27 03:43:35;;;;;;;8.07;7.33;;;24.70;56.80;;;25.36;43.67;94619.41;5046220;28;20447;-65
2022/07/27 03:46:02;;;;;;;9.00;7.80;;;24.70;56.80;;;25.37;43.64;94621.03;5041906;28;20474;-64
2022/07/27 03:48:29;;;;;;;8.50;6.67;;;24.70;56.80;;;25.37;44.11;94610.25;5045381;28;20495;-65
2022/07/27 03:50:56;;;;;;;21.20;6.60;;;24.70;56.80;;;25.36;43.69;94621.28;5045819;28;20552;-65
2022/07/27 03:53:23;;;;;;;8.53;6.53;;;24.70;56.90;;;25.36;43.93;94619.41;5045536;28;20508;-59
2022/07/27 03:55:51;;;;;;;14.00;7.17;;;24.70;57.00;;;25.38;44.88;94614.59;5045726;28;20479;-65
2022/07/27 03:58:22;;;;;;;9.73;6.77;;;24.70;57.40;;;25.40;44.60;94611.66;5045713;28;20456;-63
2022/07/27 04:00:49;;;;;;;14.47;7.03;;;24.70;57.60;;;25.38;44.63;94614.59;5044908;28;20513;-64
2022/07/27 04:03:16;;;;;;;15.40;7.20;;;24.70;58.00;;;25.40;45.05;94620.56;5040998;28;20455;-60
2022/07/27 04:05:43;;;;;;;11.60;7.47;;;24.80;58.50;;;25.43;45.70;94624.66;5045998;28;20474;-63
2022/07/27 04:08:11;;;;;;;13.77;7.27;;;24.80;58.50;;;25.46;45.83;94626.06;5045410;28;20491;-60
2022/07/27 04:10:38;;;;;;;9.33;6.60;;;24.80;58.50;;;25.49;46.05;94628.28;5045911;28;20467;-63
2022/07/27 04:13:05;;;;;;;7.57;6.57;;;24.80;58.60;;;25.51;45.76;94624.28;5045326;28;20443;-64
2022/07/27 04:15:34;;;;;;;11.40;7.40;;;24.80;58.80;;;25.56;45.41;94635.16;5045599;28;20443;-60
2022/07/27 04:18:01;;;;;;;20.73;6.83;;;24.90;59.00;;;25.61;46.22;94631.75;5043326;28;20451;-63
2022/07/27 04:20:28;;;;;;;20.50;7.90;;;24.90;59.00;;;25.68;45.72;94626.22;5045491;28;20932;-58
2022/07/27 04:22:56;;;;;;;7.33;6.60;;;25.00;59.10;;;25.72;46.34;94636.28;5045422;28;20461;-59
2022/07/27 04:25:23;;;;;;;21.23;6.80;;;25.00;59.30;;;25.78;45.79;94634.50;5046187;28;20829;-64
2022/07/27 04:27:53;;;;;;;7.30;6.60;;;25.10;59.30;;;25.84;45.95;94640.78;5045469;28;20987;-58
2022/07/27 04:30:20;;;;;;;10.20;7.30;;;25.20;59.40;;;25.88;46.06;94636.56;5045814;28;20667;-64
2022/07/27 04:32:49;;;;;;;9.70;7.30;;;25.20;59.60;;;25.93;46.40;94640.16;5044537;28;20470;-64
2022/07/27 04:35:16;;;;;;;15.77;6.70;;;25.30;59.60;;;25.98;46.04;94630.56;5045727;28;20907;-58
2022/07/27 04:37:43;;;;;;;18.73;7.07;;;25.30;59.90;;;26.04;46.40;94633.13;5048732;28;20467;-63
2022/07/27 04:40:12;;;;;;;24.07;8.10;;;25.40;60.00;;;26.08;46.99;94642.34;5048693;28;20973;-59
2022/07/27 04:42:39;;;;;;;12.50;6.53;;;25.40;60.10;;;26.15;46.53;94647.59;5048756;28;20467;-58
2022/07/27 04:45:08;;;;;;;14.93;6.97;;;25.50;60.40;;;26.19;46.77;94647.91;5045158;28;21019;-62
2022/07/27 04:47:35;;;;;;;14.73;7.10;;;25.50;60.20;;;26.20;46.92;94652.25;5047103;28;20494;-63
2022/07/27 04:50:04;;;;;;;8.10;6.97;;;25.50;60.30;;;26.22;47.22;94648.25;5049001;28;20584;-63
2022/07/27 04:52:31;;;;;;;13.87;7.57;;;25.50;60.50;;;26.24;47.35;94658.78;5048532;28;20544;-63
2022/07/27 04:54:58;;;;;;;13.43;7.73;;;25.60;61.00;;;26.26;47.35;94659.38;5048785;28;20516;-63
2022/07/27 04:57:27;;;;;;;24.63;7.07;;;25.60;60.80;;;26.27;47.81;94666.38;5048276;28;21019;-58
2022/07/27 04:59:54;;;;;;;19.20;7.50;;;25.60;61.80;;;26.29;47.45;94670.47;5048971;28;20505;-63
2022/07/27 05:02:22;;;;;;;18.30;7.83;;;25.70;61.20;;;26.33;47.42;94670.81;5047028;28;20482;-59
2022/07/27 05:04:50;;;;;;;14.83;7.47;;;25.70;61.50;;;26.41;47.66;94678.50;5049260;28;20547;-63
2022/07/27 05:07:18;;;;;;;9.57;7.70;;;25.70;61.60;;;26.48;48.11;94672.97;5048728;28;20497;-59
2022/07/27 05:09:46;;;;;;;17.57;7.20;;;25.80;62.20;;;26.55;48.11;94683.56;5048032;28;20862;-63
2022/07/27 05:12:13;;;;;;;12.67;7.07;;;25.90;62.30;;;26.61;48.26;94680.72;5048522;28;20632;-59
2022/07/27 05:14:40;;;;;;;16.20;7.60;;;25.90;62.50;;;26.67;48.88;94684.34;5048304;28;20991;-62
2022/07/27 05:17:07;;;;;;;17.83;7.20;;;26.00;63.60;;;26.71;48.93;94681.97;5046585;28;20467;-58
2022/07/27 05:19:35;;;;;;;24.73;8.30;;;26.00;63.20;;;26.75;48.62;94680.41;5047149;28;20504;-62
2022/07/27 05:22:02;;;;;;;12.73;6.87;;;26.10;63.40;;;26.78;48.38;94683.44;5048800;28;20833;-57
2022/07/27 05:24:31;;;;;;;11.90;7.60;;;26.10;62.80;;;26.83;48.18;94678.13;5047691;28;20948;-64
2022/07/27 05:26:58;;;;;;;15.77;6.70;;;26.20;62.90;;;26.92;48.36;94678.53;5051680;28;20482;-62
2022/07/27 05:29:25;;;;;;;13.87;7.70;;;26.20;63.10;;;27.01;48.58;94685.13;5048970;28;20450;-64
2022/07/27 05:31:52;;;;;;;14.03;7.40;;;26.30;63.50;;;27.12;48.29;94677.19;5047237;28;20537;-64
2022/07/27 05:34:20;;;;;;;17.00;7.70;;;26.40;63.00;;;27.26;48.17;94680.38;5047380;28;20540;-64
2022/07/27 05:36:47;;;;;;;12.83;7.77;;;26.50;62.90;;;27.39;48.22;94690.84;5047674;28;20874;-62
2022/07/27 05:39:14;;;;;;;9.23;7.27;;;26.70;63.00;;;27.48;48.15;94692.06;5046828;28;20459;-69
2022/07/27 05:41:43;;;;;;;13.03;8.30;;;26.70;63.10;;;27.48;48.12;94689.34;5047588;28;20475;-63
2022/07/27 05:44:10;;;;;;;20.13;9.03;;;26.80;62.50;;;27.48;48.04;94694.75;5047004;28;20439;-62
2022/07/27 05:46:37;;;;;;;11.30;7.50;;;26.80;62.50;;;27.48;47.87;94691.22;5047601;28;20537;-63
2022/07/27 05:49:04;;;;;;;23.47;7.47;;;26.80;62.20;;;27.49;48.06;94693.66;5046778;28;20917;-59
2022/07/27 05:51:32;;;;;;;11.47;7.87;;;26.80;62.30;;;27.47;47.66;94690.41;5047265;28;20476;-59
2022/07/27 05:53:59;;;;;;;13.03;7.87;;;26.80;62.70;;;27.49;48.03;94695.56;5047549;28;20522;-64
2022/07/27 05:56:26;;;;;;;11.17;8.20;;;26.80;62.50;;;27.56;48.21;94693.50;5047179;28;20940;-60
2022/07/27 05:58:55;;;;;;;11.23;7.17;;;26.80;62.50;;;27.70;48.31;94696.63;5047192;28;20451;-63
2022/07/27 06:01:22;;;;;;;11.70;7.53;;;27.00;63.10;;;27.86;47.97;94694.94;5047140;28;20915;-59
2022/07/27 06:03:50;;;;;;;13.50;7.80;;;27.10;63.50;;;28.03;47.33;94694.88;5044266;28;20984;-59
2022/07/27 06:09:02;;;;;;;12.30;6.80;;;27.40;62.20;;;28.48;46.83;94693.72;5046500;28;20482;-63
2022/07/27 06:11:29;;;;;;;19.50;8.23;;;27.70;61.50;;;28.66;46.59;94694.41;5047172;28;20987;-58
2022/07/27 06:13:57;;;;;;;16.90;6.90;;;27.80;61.00;;;28.81;46.67;94702.66;5047394;28;20449;-64
2022/07/27 06:16:25;;;;;;;8.40;7.30;;;28.00;60.70;;;29.02;46.39;94694.69;5046718;28;20475;-59
2022/07/27 06:18:52;;;;;;;10.20;7.17;;;28.20;60.40;;;29.23;45.81;94699.19;5045393;28;20831;-63
2022/07/27 06:21:22;;;;;;;17.03;7.10;;;28.40;59.90;;;29.46;45.18;94694.47;5047035;28;21195;-63
2022/07/27 06:23:50;;;;;;;17.87;7.80;;;28.60;59.60;;;29.67;44.75;94692.69;5043099;28;20737;-63
2022/07/27 06:26:17;;;;;;;8.93;7.50;;;28.80;59.30;;;29.88;45.08;94698.22;5046619;28;20537;-61
2022/07/27 06:28:44;;;;;;;14.33;6.77;;;29.00;59.70;;;30.11;44.20;94703.16;5047379;28;20693;-63
2022/07/27 06:31:13;;;;;;;12.97;7.50;;;29.20;59.20;;;30.29;43.83;94709.19;5046173;28;20471;-63
2022/07/27 06:33:42;;;;;;;6.90;6.20;;;29.40;58.20;;;30.44;43.75;94705.69;5044916;28;20461;-58
2022/07/27 06:36:09;;;;;;;11.03;7.57;;;29.60;57.60;;;30.60;43.09;94711.97;5046377;28;20221;-63
2022/07/27 06:38:36;;;;;;;13.80;7.07;;;29.80;57.30;;;30.75;42.98;94704.66;5042145;28;20451;-63
2022/07/27 06:41:03;;;;;;;12.83;6.63;;;29.90;57.30;;;30.90;43.40;94708.44;5046601;28;20224;-59
2022/07/27 06:43:32;;;;;;;7.07;6.47;;;30.00;56.40;;;30.98;42.31;94702.50;5045894;28;20200;-64
2022/07/27 06:45:59;;;;;;;9.70;7.30;;;30.10;56.40;;;31.07;42.70;94706.28;5041854;28;20217;-65
2022/07/27 06:48:27;;;;;;;11.87;7.10;;;30.20;56.00;;;31.17;42.51;94701.94;5045525;28;20260;-59
2022/07/27 06:50:55;;;;;;;14.33;7.50;;;30.30;55.80;;;31.23;41.86;94703.56;5046030;28;20727;-58
2022/07/27 06:53:23;;;;;;;19.30;7.60;;;30.40;55.40;;;31.25;41.85;94699.50;5042471;28;20653;-61
2022/07/27 06:55:50;;;;;;;15.03;7.83;;;30.40;55.30;;;31.32;41.58;94701.09;5046056;28;20750;-59
2022/07/27 06:58:18;;;;;;;12.03;7.40;;;30.50;55.00;;;31.43;41.47;94700.81;5046106;28;20208;-64
2022/07/27 07:00:46;;;;;;;12.90;7.10;;;30.60;55.00;;;31.60;41.00;94694.25;5046197;28;20282;-63
2022/07/27 07:03:13;;;;;;;12.63;7.00;;;30.70;54.90;;;31.74;40.60;94692.56;5044755;28;20212;-60
2022/07/27 07:05:44;;;;;;;17.00;8.63;;;30.80;54.60;;;31.85;40.79;94689.81;5045515;28;20205;-59
2022/07/27 07:08:12;;;;;;;9.93;7.10;;;31.00;54.30;;;31.97;40.56;94688.41;5041914;28;20229;-63
2022/07/27 07:10:39;;;;;;;10.50;7.23;;;31.10;54.30;;;32.12;40.50;94689.47;5045781;28;20286;-59
2022/07/27 07:13:07;;;;;;;14.73;7.53;;;31.20;54.00;;;32.28;40.50;94693.69;5046161;28;20204;-59
2022/07/27 07:15:35;;;;;;;19.80;8.52;;;31.30;53.70;;;32.46;39.94;94689.53;5045312;28;20254;-63
2022/07/27 07:18:02;;;;;;;11.13;7.63;;;31.50;53.60;;;32.67;39.81;94684.78;5044351;28;20345;-63
2022/07/27 07:20:30;;;;;;;18.75;7.25;;;31.70;53.20;;;32.89;39.43;94683.53;5045468;28;20212;-59
2022/07/27 07:22:58;;;;;;;15.07;8.77;;;31.90;53.00;;;33.09;39.34;94682.50;5045438;28;20654;-63
2022/07/27 07:25:26;;;;;;;8.20;6.60;;;32.10;52.60;;;33.29;39.38;94676.06;5045430;28;20574;-58
2022/07/27 07:27:54;;;;;;;9.38;6.57;;;32.30;52.20;;;33.48;38.34;94673.44;5045513;28;20320;-63
2022/07/27 07:30:21;;;;;;;7.20;6.50;;;32.50;51.60;;;33.66;38.12;94677.31;5045826;28;20205;-64
2022/07/27 07:32:48;;;;;;;12.60;7.15;;;32.70;51.40;;;33.84;37.69;94675.75;5045215;28;20216;-59
2022/07/27 07:35:16;;;;;;;8.70;6.95;;;32.90;50.80;;;34.04;37.58;94676.63;5042220;28;20205;-65
2022/07/27 07:37:43;;;;;;;16.70;7.32;;;33.10;50.50;;;34.23;37.49;94676.63;5045327;28;20728;-59
2022/07/27 07:40:12;;;;;;;8.60;7.35;;;33.20;49.80;;;34.39;36.40;94674.50;5045793;28;20208;-60
2022/07/27 07:42:51;;;;;;;18.38;7.43;;;33.40;48.80;;;34.56;35.37;94679.44;5045644;28;20224;-64
2022/07/27 07:45:18;;;;;;;14.63;6.97;;;33.60;48.20;;;34.74;35.89;94672.34;5044767;28;20681;-59
2022/07/27 07:47:45;;;;;;;9.35;6.63;;;33.80;48.20;;;34.73;35.38;94671.50;5045237;28;20279;-64
2022/07/27 07:50:12;;;;;;;9.90;7.38;;;33.80;47.50;;;34.77;35.37;94672.59;5044851;28;20217;-63
2022/07/27 07:52:40;;;;;;;17.25;7.53;;;33.80;47.50;;;34.84;35.68;94677.66;5045412;28;20220;-65
2022/07/27 07:55:08;;;;;;;13.07;7.97;;;33.90;47.60;;;34.98;35.06;94673.06;5045371;28;20662;-66
2022/07/27 07:57:37;;;;;;;18.75;7.32;;;34.00;47.60;;;35.19;34.39;94678.16;5045069;28;20217;-59
2022/07/27 08:00:05;;;;;;;15.23;7.53;;;34.20;46.90;;;35.41;33.56;94679.44;5041429;28;20209;-64
2022/07/27 08:02:32;;;;;;;10.40;6.93;;;34.40;45.90;;;35.59;34.39;94678.56;5044480;28;20229;-66
2022/07/27 08:05:00;;;;;;;9.32;7.57;;;34.60;46.50;;;35.78;34.36;94680.41;5045219;28;20312;-61
2022/07/27 08:07:27;;;;;;;14.77;7.75;;;34.80;46.20;;;35.96;34.20;94684.97;5044928;28;20220;-61
2022/07/27 08:09:54;;;;;;;12.27;7.05;;;35.00;45.90;;;36.15;33.42;94684.03;5045655;28;20617;-64
2022/07/27 08:12:22;;;;;;;13.15;7.43;;;35.10;44.90;;;36.32;33.14;94686.16;5048787;28;20713;-59
2022/07/27 08:14:50;;;;;;;13.80;7.40;;;35.30;45.20;;;36.48;32.64;94679.19;5045037;28;20201;-63
2022/07/27 08:17:17;;;;;;;8.27;7.45;;;35.50;44.50;;;36.59;32.42;94671.53;5048249;28;20263;-58
2022/07/27 08:19:45;;;;;;;14.35;7.13;;;35.60;43.50;;;36.76;32.14;94685.44;5049084;28;20262;-63
2022/07/27 08:22:12;;;;;;;13.60;7.38;;;35.80;44.40;;;36.92;32.10;94677.66;5049251;28;20653;-64
2022/07/27 08:24:39;;;;;;;6.90;6.20;;;35.90;44.10;;;37.12;31.91;94672.75;5049426;28;20212;-66
2022/07/27 08:27:07;;;;;;;8.45;7.03;;;36.10;43.90;;;37.36;31.98;94674.38;5049697;28;20298;-59
2022/07/27 08:29:34;;;;;;;8.25;6.22;;;36.40;43.40;;;37.57;31.03;94672.69;5048792;28;20243;-58
2022/07/27 08:32:02;;;;;;;15.77;10.05;;;36.60;42.70;;;37.66;31.06;94668.06;5048003;28;20275;-59
2022/07/27 08:34:30;;;;;;;21.35;7.47;;;36.70;42.70;;;37.79;30.69;94665.53;5048444;28;20213;-63
2022/07/27 08:36:57;;;;;;;7.35;6.70;;;36.90;42.00;;;37.83;30.57;94661.03;5048195;28;20225;-59
2022/07/27 08:39:24;;;;;;;10.60;7.10;;;36.90;42.00;;;37.99;30.68;94667.69;5048461;28;20208;-64
2022/07/27 08:41:52;;;;;;;11.15;6.60;;;37.00;41.80;;;38.16;29.99;94660.63;5048915;28;20237;-58
2022/07/27 08:44:22;;;;;;;10.60;6.63;;;37.10;41.60;;;38.24;30.13;94659.84;5047522;28;20514;-59
2022/07/27 08:46:49;;;;;;;7.97;7.13;;;37.30;41.10;;;38.31;29.75;94659.38;5048183;28;20244;-59
2022/07/27 08:49:18;;;;;;;7.05;6.20;;;37.30;40.90;;;38.48;29.51;94655.81;5048213;28;20330;-58
2022/07/27 08:51:45;;;;;;;6.85;6.30;;;37.50;40.50;;;38.65;29.26;94655.03;5048212;28;20233;-59
2022/07/27 08:54:12;;;;;;;19.10;6.85;;;37.70;40.20;;;38.83;29.39;94653.91;5048394;28;20944;-64
2022/07/27 08:56:40;;;;;;;8.35;7.47;;;37.80;39.90;;;38.98;28.82;94649.00;5048335;28;20225;-60
2022/07/27 08:59:07;;;;;;;14.50;7.32;;;38.00;39.70;;;39.13;29.05;94644.97;5048125;28;20205;-60
2022/07/27 09:01:35;;;;;;;13.18;6.35;;;38.20;39.40;;;39.29;28.23;94645.25;5047062;28;20467;-61
2022/07/27 09:04:02;;;;;;;7.25;6.65;;;38.30;38.70;;;39.43;28.36;94641.16;5047532;28;20264;-63
2022/07/27 09:06:46;;;;;;;9.73;7.45;;;38.50;38.80;;;39.64;27.54;94637.69;5047465;28;20229;-66
2022/07/27 09:09:14;;;;;;;7.85;6.18;;;38.60;38.70;;;39.82;28.00;94635.66;5045020;28;20221;-63
2022/07/27 09:11:42;;;;;;;8.10;6.68;;;38.80;38.70;;;39.99;27.80;94640.28;5047533;28;20270;-63
2022/07/27 09:14:11;;;;;;;18.42;6.95;;;39.00;38.40;;;40.13;27.98;94637.28;5047840;28;20208;-63
2022/07/27 09:16:38;;;;;;;9.60;6.95;;;39.20;38.10;;;40.22;26.51;94635.28;5047018;28;20323;-64
2022/07/27 09:19:07;;;;;;;12.18;6.55;;;39.30;36.90;;;40.18;27.52;94628.81;5046848;28;20281;-64
2022/07/27 09:21:35;;;;;;;10.32;7.35;;;39.20;37.10;;;40.12;27.06;94630.16;5046665;28;20286;-59
2022/07/27 09:24:11;;;;;;;10.27;6.13;;;39.20;36.10;;;40.11;27.28;94626.59;5047448;28;20213;-64
2022/07/27 09:26:38;;;;;;;9.80;6.72;;;39.20;36.90;;;40.21;27.46;94638.38;5047064;28;20697;-61
2022/07/27 09:29:07;;;;;;;12.32;6.95;;;39.20;36.90;;;40.25;26.83;94634.63;5047568;28;20286;-63
2022/07/27 09:31:41;;;;;;;21.80;7.57;;;39.30;36.50;;;40.06;26.55;94632.28;5043604;28;20216;-63
2022/07/27 09:34:09;;;;;;;7.75;6.80;;;39.20;36.10;;;39.78;26.90;94637.47;5047134;28;20292;-63
2022/07/27 09:36:49;;;;;;;12.27;6.50;;;38.90;36.20;;;39.75;27.16;94629.84;5046864;28;20224;-59
2022/07/27 09:39:18;;;;;;;9.50;6.57;;;38.80;36.90;;;39.81;27.10;94623.03;5044725;28;20829;-64
2022/07/27 09:41:52;;;;;;;12.63;6.20;;;38.80;37.00;;;39.95;27.27;94626.34;5047311;28;20271;-60
2022/07/27 09:44:31;;;;;;;12.57;6.80;;;38.90;37.30;;;40.14;27.40;94625.94;5046079;28;20193;-59
2022/07/27 09:46:58;;;;;;;7.00;6.43;;;39.00;37.10;;;40.30;26.78;94622.59;5045124;28;20305;-64
2022/07/27 09:49:28;;;;;;;8.43;6.65;;;39.20;36.70;;;40.37;26.94;94620.06;5047022;28;20289;-61
2022/07/27 09:51:55;;;;;;;7.60;6.25;;;39.40;36.40;;;40.38;26.51;94631.94;5047134;28;20282;-64
2022/07/27 09:54:24;;;;;;;9.45;7.03;;;39.40;36.30;;;40.42;26.58;94614.41;5047238;28;20258;-62
2022/07/27 09:57:00;;;;;;;7.45;6.75;;;39.50;36.40;;;40.50;25.73;94609.97;5047618;28;20228;-62
2022/07/27 09:59:27;;;;;;;17.10;6.72;;;39.50;36.20;;;40.54;26.76;94613.66;5047801;28;20695;-60
2022/07/27 10:01:54;;;;;;;8.23;7.38;;;39.50;36.10;;;40.54;26.65;94615.59;5046656;28;20516;-64
2022/07/27 10:04:22;;;;;;;8.68;7.50;;;39.60;35.80;;;40.41;26.44;94611.97;5046179;28;20640;-59
2022/07/27 10:06:49;;;;;;;19.85;7.05;;;39.50;35.60;;;40.20;25.94;94615.50;5046786;28;20621;-63
2022/07/27 10:09:17;;;;;;;10.80;7.05;;;39.40;35.60;;;40.14;26.35;94608.56;5047017;28;20229;-64
2022/07/27 10:11:46;;;;;;;9.77;7.40;;;39.30;35.70;;;40.06;26.22;94606.69;5046734;28;20236;-59
2022/07/27 10:14:13;;;;;;;7.68;6.80;;;39.20;35.60;;;39.95;26.19;94604.28;5047328;28;20204;-60
2022/07/27 10:16:41;;;;;;;10.10;6.72;;;39.10;36.50;;;39.90;26.13;94607.25;5046420;28;20221;-59
2022/07/27 10:19:13;;;;;;;10.27;6.80;;;39.00;35.90;;;39.85;26.27;94599.19;5046766;28;20192;-64